sensor_id;sensor_type;location;lat;lon;timestamp;P1;durP1;ratioP1;P2;durP2;ratioP2
1258;SDS011;619;51.472;6.628;2024-03-07T00:00:10;28.37;;;19.33;;
1258;SDS011;619;51.472;6.628;2024-03-07T00:02:42;31.57;;;19.53;;
1258;SDS011;619;51.472;6.628;2024-03-07T00:05:12;26.93;;;18.63;;
1258;SDS011;619;51.472;6.628;2024-03-07T00:07:41;28.83;;;19.07;;
1258;SDS011;619;51.472;6.628;2024-03-07T00:10:09;31.37;;;20.17;;
1258;SDS011;619;51.472;6.628;2024-03-07T00:12:40;27.10;;;19.20;;
1258;SDS011;619;51.472;6.628;2024-03-07T00:15:06;39.80;;;22.20;;
1258;SDS011;619;51.472;6.628;2024-03-07T00:17:35;25.33;;;18.47;;
1258;SDS011;619;51.472;6.628;2024-03-07T00:20:03;28.70;;;18.17;;
1258;SDS011;619;51.472;6.628;2024-03-07T00:22:30;35.83;;;21.80;;
1258;SDS011;619;51.472;6.628;2024-03-07T00:24:58;36.47;;;20.03;;
1258;SDS011;619;51.472;6.628;2024-03-07T00:27:26;27.43;;;17.23;;
1258;SDS011;619;51.472;6.628;2024-03-07T00:29:55;28.93;;;19.77;;
1258;SDS011;619;51.472;6.628;2024-03-07T00:32:25;35.27;;;20.57;;
1258;SDS011;619;51.472;6.628;2024-03-07T00:34:55;30.37;;;17.70;;
1258;SDS011;619;51.472;6.628;2024-03-07T00:37:22;27.23;;;18.63;;
1258;SDS011;619;51.472;6.628;2024-03-07T00:39:50;29.20;;;19.90;;
1258;SDS011;619;51.472;6.628;2024-03-07T00:42:16;31.50;;;20.70;;
1258;SDS011;619;51.472;6.628;2024-03-07T00:44:44;34.57;;;19.20;;
1258;SDS011;619;51.472;6.628;2024-03-07T00:47:10;28.17;;;18.97;;
1258;SDS011;619;51.472;6.628;2024-03-07T00:49:36;32.73;;;21.00;;
1258;SDS011;619;51.472;6.628;2024-03-07T00:52:02;28.63;;;18.10;;
1258;SDS011;619;51.472;6.628;2024-03-07T00:54:30;29.93;;;20.40;;
1258;SDS011;619;51.472;6.628;2024-03-07T00:56:55;28.90;;;18.30;;
1258;SDS011;619;51.472;6.628;2024-03-07T00:59:23;28.57;;;18.93;;
1258;SDS011;619;51.472;6.628;2024-03-07T01:01:48;29.57;;;18.53;;
1258;SDS011;619;51.472;6.628;2024-03-07T01:04:14;28.77;;;18.57;;
1258;SDS011;619;51.472;6.628;2024-03-07T01:06:42;30.23;;;17.87;;
1258;SDS011;619;51.472;6.628;2024-03-07T01:09:12;29.90;;;20.10;;
1258;SDS011;619;51.472;6.628;2024-03-07T01:11:44;29.00;;;19.17;;
1258;SDS011;619;51.472;6.628;2024-03-07T01:14:15;30.73;;;21.47;;
1258;SDS011;619;51.472;6.628;2024-03-07T01:16:41;34.60;;;19.80;;
1258;SDS011;619;51.472;6.628;2024-03-07T01:19:11;27.80;;;20.07;;
1258;SDS011;619;51.472;6.628;2024-03-07T01:21:37;31.57;;;19.50;;
1258;SDS011;619;51.472;6.628;2024-03-07T01:24:07;30.87;;;19.47;;
1258;SDS011;619;51.472;6.628;2024-03-07T01:26:37;31.87;;;20.83;;
1258;SDS011;619;51.472;6.628;2024-03-07T01:29:02;29.77;;;21.17;;
1258;SDS011;619;51.472;6.628;2024-03-07T01:31:31;33.03;;;20.57;;
1258;SDS011;619;51.472;6.628;2024-03-07T01:33:59;30.27;;;19.67;;
1258;SDS011;619;51.472;6.628;2024-03-07T01:36:27;31.87;;;19.70;;
1258;SDS011;619;51.472;6.628;2024-03-07T01:38:55;28.43;;;19.60;;
1258;SDS011;619;51.472;6.628;2024-03-07T01:41:23;39.53;;;21.83;;
1258;SDS011;619;51.472;6.628;2024-03-07T01:43:49;35.37;;;21.37;;
1258;SDS011;619;51.472;6.628;2024-03-07T01:46:19;34.87;;;22.63;;
1258;SDS011;619;51.472;6.628;2024-03-07T01:48:47;31.03;;;21.60;;
1258;SDS011;619;51.472;6.628;2024-03-07T01:51:13;32.73;;;20.87;;
1258;SDS011;619;51.472;6.628;2024-03-07T01:53:39;28.90;;;20.03;;
1258;SDS011;619;51.472;6.628;2024-03-07T01:56:05;36.40;;;22.80;;
1258;SDS011;619;51.472;6.628;2024-03-07T01:58:34;28.90;;;20.87;;
1258;SDS011;619;51.472;6.628;2024-03-07T02:01:01;37.43;;;22.30;;
1258;SDS011;619;51.472;6.628;2024-03-07T02:03:27;33.77;;;21.70;;
1258;SDS011;619;51.472;6.628;2024-03-07T02:05:55;32.60;;;23.27;;
1258;SDS011;619;51.472;6.628;2024-03-07T02:08:24;36.27;;;24.03;;
1258;SDS011;619;51.472;6.628;2024-03-07T02:10:52;38.90;;;20.13;;
1258;SDS011;619;51.472;6.628;2024-03-07T02:13:17;32.60;;;20.43;;
1258;SDS011;619;51.472;6.628;2024-03-07T02:15:46;34.53;;;21.97;;
1258;SDS011;619;51.472;6.628;2024-03-07T02:18:14;34.90;;;22.37;;
1258;SDS011;619;51.472;6.628;2024-03-07T02:20:45;31.40;;;22.10;;
1258;SDS011;619;51.472;6.628;2024-03-07T02:23:15;32.00;;;22.77;;
1258;SDS011;619;51.472;6.628;2024-03-07T02:25:43;30.30;;;20.97;;
1258;SDS011;619;51.472;6.628;2024-03-07T02:28:11;29.20;;;21.87;;
1258;SDS011;619;51.472;6.628;2024-03-07T02:30:39;32.87;;;24.17;;
1258;SDS011;619;51.472;6.628;2024-03-07T02:33:04;33.47;;;21.07;;
1258;SDS011;619;51.472;6.628;2024-03-07T02:35:36;33.27;;;22.20;;
1258;SDS011;619;51.472;6.628;2024-03-07T02:38:03;29.10;;;21.63;;
1258;SDS011;619;51.472;6.628;2024-03-07T02:40:34;31.57;;;21.10;;
1258;SDS011;619;51.472;6.628;2024-03-07T02:43:07;34.90;;;22.07;;
1258;SDS011;619;51.472;6.628;2024-03-07T02:45:35;32.00;;;20.70;;
1258;SDS011;619;51.472;6.628;2024-03-07T02:48:03;29.77;;;21.53;;
1258;SDS011;619;51.472;6.628;2024-03-07T02:50:35;29.70;;;21.03;;
1258;SDS011;619;51.472;6.628;2024-03-07T02:53:04;30.77;;;21.97;;
1258;SDS011;619;51.472;6.628;2024-03-07T02:55:32;36.47;;;22.87;;
1258;SDS011;619;51.472;6.628;2024-03-07T02:57:58;30.03;;;20.70;;
1258;SDS011;619;51.472;6.628;2024-03-07T03:00:26;29.97;;;20.40;;
1258;SDS011;619;51.472;6.628;2024-03-07T03:02:57;30.87;;;22.13;;
1258;SDS011;619;51.472;6.628;2024-03-07T03:05:25;33.80;;;23.00;;
1258;SDS011;619;51.472;6.628;2024-03-07T03:07:51;25.60;;;22.10;;
1258;SDS011;619;51.472;6.628;2024-03-07T03:10:22;28.47;;;21.00;;
1258;SDS011;619;51.472;6.628;2024-03-07T03:12:51;32.27;;;21.90;;
1258;SDS011;619;51.472;6.628;2024-03-07T03:15:26;32.07;;;20.93;;
1258;SDS011;619;51.472;6.628;2024-03-07T03:17:54;31.87;;;21.10;;
1258;SDS011;619;51.472;6.628;2024-03-07T03:20:24;29.63;;;21.00;;
1258;SDS011;619;51.472;6.628;2024-03-07T03:22:58;32.83;;;20.00;;
1258;SDS011;619;51.472;6.628;2024-03-07T03:25:24;31.30;;;19.43;;
1258;SDS011;619;51.472;6.628;2024-03-07T03:27:53;33.37;;;20.70;;
1258;SDS011;619;51.472;6.628;2024-03-07T03:30:19;34.43;;;19.27;;
1258;SDS011;619;51.472;6.628;2024-03-07T03:32:49;29.83;;;21.90;;
1258;SDS011;619;51.472;6.628;2024-03-07T03:35:15;31.50;;;21.60;;
1258;SDS011;619;51.472;6.628;2024-03-07T03:37:43;30.20;;;21.97;;
1258;SDS011;619;51.472;6.628;2024-03-07T03:40:11;34.00;;;21.50;;
1258;SDS011;619;51.472;6.628;2024-03-07T03:42:38;34.43;;;20.23;;
1258;SDS011;619;51.472;6.628;2024-03-07T03:45:07;32.87;;;22.00;;
1258;SDS011;619;51.472;6.628;2024-03-07T03:47:37;37.10;;;23.83;;
1258;SDS011;619;51.472;6.628;2024-03-07T03:50:03;31.33;;;20.47;;
1258;SDS011;619;51.472;6.628;2024-03-07T03:52:30;27.47;;;19.70;;
1258;SDS011;619;51.472;6.628;2024-03-07T03:54:58;28.20;;;19.87;;
1258;SDS011;619;51.472;6.628;2024-03-07T03:57:27;35.97;;;21.93;;
1258;SDS011;619;51.472;6.628;2024-03-07T03:59:54;32.93;;;21.43;;
1258;SDS011;619;51.472;6.628;2024-03-07T04:02:21;33.90;;;21.80;;
1258;SDS011;619;51.472;6.628;2024-03-07T04:04:52;35.47;;;22.00;;
1258;SDS011;619;51.472;6.628;2024-03-07T04:07:18;34.27;;;21.97;;
1258;SDS011;619;51.472;6.628;2024-03-07T04:09:44;27.90;;;21.63;;
1258;SDS011;619;51.472;6.628;2024-03-07T04:12:11;33.03;;;21.57;;
1258;SDS011;619;51.472;6.628;2024-03-07T04:14:39;32.93;;;20.70;;
1258;SDS011;619;51.472;6.628;2024-03-07T04:17:06;31.10;;;20.73;;
1258;SDS011;619;51.472;6.628;2024-03-07T04:19:36;30.90;;;22.30;;
1258;SDS011;619;51.472;6.628;2024-03-07T04:22:04;31.10;;;22.57;;
1258;SDS011;619;51.472;6.628;2024-03-07T04:24:30;37.67;;;21.63;;
1258;SDS011;619;51.472;6.628;2024-03-07T04:27:00;28.53;;;21.93;;
1258;SDS011;619;51.472;6.628;2024-03-07T04:29:26;32.00;;;21.67;;
1258;SDS011;619;51.472;6.628;2024-03-07T04:31:52;30.90;;;21.00;;
1258;SDS011;619;51.472;6.628;2024-03-07T04:34:18;35.90;;;21.50;;
1258;SDS011;619;51.472;6.628;2024-03-07T04:36:46;37.87;;;22.30;;
1258;SDS011;619;51.472;6.628;2024-03-07T04:39:12;26.57;;;20.60;;
1258;SDS011;619;51.472;6.628;2024-03-07T04:41:52;30.47;;;21.87;;
1258;SDS011;619;51.472;6.628;2024-03-07T04:44:22;32.20;;;23.00;;
1258;SDS011;619;51.472;6.628;2024-03-07T04:46:48;31.23;;;21.83;;
1258;SDS011;619;51.472;6.628;2024-03-07T04:49:15;31.07;;;20.60;;
1258;SDS011;619;51.472;6.628;2024-03-07T04:51:40;32.87;;;20.83;;
1258;SDS011;619;51.472;6.628;2024-03-07T04:54:08;30.57;;;20.67;;
1258;SDS011;619;51.472;6.628;2024-03-07T04:56:36;28.57;;;21.13;;
1258;SDS011;619;51.472;6.628;2024-03-07T04:59:02;30.53;;;20.93;;
1258;SDS011;619;51.472;6.628;2024-03-07T05:01:27;30.57;;;20.57;;
1258;SDS011;619;51.472;6.628;2024-03-07T05:03:53;33.70;;;23.37;;
1258;SDS011;619;51.472;6.628;2024-03-07T05:06:21;32.70;;;23.17;;
1258;SDS011;619;51.472;6.628;2024-03-07T05:08:47;31.83;;;22.20;;
1258;SDS011;619;51.472;6.628;2024-03-07T05:11:12;32.47;;;21.17;;
1258;SDS011;619;51.472;6.628;2024-03-07T05:13:38;29.80;;;20.00;;
1258;SDS011;619;51.472;6.628;2024-03-07T05:16:08;29.17;;;20.20;;
1258;SDS011;619;51.472;6.628;2024-03-07T05:18:36;36.43;;;21.80;;
1258;SDS011;619;51.472;6.628;2024-03-07T05:21:02;29.27;;;22.17;;
1258;SDS011;619;51.472;6.628;2024-03-07T05:23:48;30.13;;;19.47;;
1258;SDS011;619;51.472;6.628;2024-03-07T05:26:16;28.10;;;20.50;;
1258;SDS011;619;51.472;6.628;2024-03-07T05:28:42;35.70;;;22.07;;
1258;SDS011;619;51.472;6.628;2024-03-07T05:31:10;29.13;;;19.70;;
1258;SDS011;619;51.472;6.628;2024-03-07T05:33:37;29.10;;;19.50;;
1258;SDS011;619;51.472;6.628;2024-03-07T05:36:05;27.57;;;19.50;;
1258;SDS011;619;51.472;6.628;2024-03-07T05:38:43;32.27;;;21.50;;
1258;SDS011;619;51.472;6.628;2024-03-07T05:41:10;30.70;;;20.83;;
1258;SDS011;619;51.472;6.628;2024-03-07T05:43:37;29.10;;;20.03;;
1258;SDS011;619;51.472;6.628;2024-03-07T05:46:03;26.97;;;20.40;;
1258;SDS011;619;51.472;6.628;2024-03-07T05:48:31;38.00;;;22.47;;
1258;SDS011;619;51.472;6.628;2024-03-07T05:50:59;29.90;;;22.37;;
1258;SDS011;619;51.472;6.628;2024-03-07T05:53:25;30.33;;;20.37;;
1258;SDS011;619;51.472;6.628;2024-03-07T05:55:54;30.53;;;22.17;;
1258;SDS011;619;51.472;6.628;2024-03-07T05:58:20;33.00;;;21.27;;
1258;SDS011;619;51.472;6.628;2024-03-07T06:00:46;27.30;;;18.77;;
1258;SDS011;619;51.472;6.628;2024-03-07T06:03:18;31.47;;;20.23;;
1258;SDS011;619;51.472;6.628;2024-03-07T06:05:45;29.07;;;19.37;;
1258;SDS011;619;51.472;6.628;2024-03-07T06:08:13;28.13;;;20.97;;
1258;SDS011;619;51.472;6.628;2024-03-07T06:10:41;27.87;;;18.50;;
1258;SDS011;619;51.472;6.628;2024-03-07T06:13:08;29.13;;;21.63;;
1258;SDS011;619;51.472;6.628;2024-03-07T06:15:34;34.70;;;19.90;;
1258;SDS011;619;51.472;6.628;2024-03-07T06:18:00;30.93;;;20.90;;
1258;SDS011;619;51.472;6.628;2024-03-07T06:20:26;30.13;;;19.80;;
1258;SDS011;619;51.472;6.628;2024-03-07T06:22:52;28.47;;;18.50;;
1258;SDS011;619;51.472;6.628;2024-03-07T06:25:17;30.57;;;20.77;;
1258;SDS011;619;51.472;6.628;2024-03-07T06:27:58;30.03;;;20.87;;
1258;SDS011;619;51.472;6.628;2024-03-07T06:30:33;30.80;;;21.30;;
1258;SDS011;619;51.472;6.628;2024-03-07T06:33:05;32.57;;;19.43;;
1258;SDS011;619;51.472;6.628;2024-03-07T06:35:32;35.90;;;18.30;;
1258;SDS011;619;51.472;6.628;2024-03-07T06:38:01;29.50;;;21.63;;
1258;SDS011;619;51.472;6.628;2024-03-07T06:40:28;30.23;;;20.33;;
1258;SDS011;619;51.472;6.628;2024-03-07T06:43:03;31.10;;;21.37;;
1258;SDS011;619;51.472;6.628;2024-03-07T06:45:29;29.63;;;19.93;;
1258;SDS011;619;51.472;6.628;2024-03-07T06:47:58;29.40;;;19.80;;
1258;SDS011;619;51.472;6.628;2024-03-07T06:50:23;28.00;;;19.17;;
1258;SDS011;619;51.472;6.628;2024-03-07T06:52:49;33.17;;;20.47;;
1258;SDS011;619;51.472;6.628;2024-03-07T06:55:17;26.97;;;19.00;;
1258;SDS011;619;51.472;6.628;2024-03-07T06:57:46;26.23;;;18.47;;
1258;SDS011;619;51.472;6.628;2024-03-07T07:00:12;29.57;;;19.10;;
1258;SDS011;619;51.472;6.628;2024-03-07T07:02:45;32.70;;;21.00;;
1258;SDS011;619;51.472;6.628;2024-03-07T07:05:12;27.30;;;18.73;;
1258;SDS011;619;51.472;6.628;2024-03-07T07:07:43;28.60;;;20.10;;
1258;SDS011;619;51.472;6.628;2024-03-07T07:10:09;21.53;;;16.27;;
1258;SDS011;619;51.472;6.628;2024-03-07T07:12:41;33.87;;;21.13;;
1258;SDS011;619;51.472;6.628;2024-03-07T07:15:08;27.93;;;19.53;;
1258;SDS011;619;51.472;6.628;2024-03-07T07:17:37;26.67;;;17.10;;
1258;SDS011;619;51.472;6.628;2024-03-07T07:20:03;26.40;;;18.93;;
1258;SDS011;619;51.472;6.628;2024-03-07T07:22:35;30.37;;;20.10;;
1258;SDS011;619;51.472;6.628;2024-03-07T07:25:04;24.03;;;16.53;;
1258;SDS011;619;51.472;6.628;2024-03-07T07:27:33;31.30;;;20.33;;
1258;SDS011;619;51.472;6.628;2024-03-07T07:29:59;24.50;;;18.43;;
1258;SDS011;619;51.472;6.628;2024-03-07T07:32:25;26.00;;;19.27;;
1258;SDS011;619;51.472;6.628;2024-03-07T07:34:52;28.10;;;19.23;;
1258;SDS011;619;51.472;6.628;2024-03-07T07:37:18;25.00;;;17.83;;
1258;SDS011;619;51.472;6.628;2024-03-07T07:39:44;32.37;;;20.37;;
1258;SDS011;619;51.472;6.628;2024-03-07T07:42:11;29.57;;;18.20;;
1258;SDS011;619;51.472;6.628;2024-03-07T07:44:36;24.30;;;17.40;;
1258;SDS011;619;51.472;6.628;2024-03-07T07:47:02;26.90;;;19.00;;
1258;SDS011;619;51.472;6.628;2024-03-07T07:49:30;28.53;;;20.77;;
1258;SDS011;619;51.472;6.628;2024-03-07T07:51:56;28.70;;;21.10;;
1258;SDS011;619;51.472;6.628;2024-03-07T07:54:25;26.70;;;18.30;;
1258;SDS011;619;51.472;6.628;2024-03-07T07:56:51;25.63;;;15.90;;
1258;SDS011;619;51.472;6.628;2024-03-07T07:59:17;27.20;;;19.77;;
1258;SDS011;619;51.472;6.628;2024-03-07T08:01:43;27.10;;;18.57;;
1258;SDS011;619;51.472;6.628;2024-03-07T08:04:08;29.80;;;20.63;;
1258;SDS011;619;51.472;6.628;2024-03-07T08:06:36;29.83;;;17.60;;
1258;SDS011;619;51.472;6.628;2024-03-07T08:09:04;25.23;;;16.47;;
1258;SDS011;619;51.472;6.628;2024-03-07T08:11:34;20.93;;;14.37;;
1258;SDS011;619;51.472;6.628;2024-03-07T08:14:01;25.33;;;17.27;;
1258;SDS011;619;51.472;6.628;2024-03-07T08:16:27;24.43;;;16.33;;
1258;SDS011;619;51.472;6.628;2024-03-07T08:18:53;24.73;;;17.00;;
1258;SDS011;619;51.472;6.628;2024-03-07T08:21:20;20.90;;;15.83;;
1258;SDS011;619;51.472;6.628;2024-03-07T08:23:48;20.27;;;15.50;;
1258;SDS011;619;51.472;6.628;2024-03-07T08:26:14;21.37;;;16.30;;
1258;SDS011;619;51.472;6.628;2024-03-07T08:28:40;24.37;;;16.23;;
1258;SDS011;619;51.472;6.628;2024-03-07T08:31:06;22.50;;;16.57;;
1258;SDS011;619;51.472;6.628;2024-03-07T08:33:32;25.70;;;16.33;;
1258;SDS011;619;51.472;6.628;2024-03-07T08:36:00;22.83;;;17.03;;
1258;SDS011;619;51.472;6.628;2024-03-07T08:38:28;15.33;;;12.60;;
1258;SDS011;619;51.472;6.628;2024-03-07T08:40:53;21.10;;;15.57;;
1258;SDS011;619;51.472;6.628;2024-03-07T08:43:22;26.20;;;17.83;;
1258;SDS011;619;51.472;6.628;2024-03-07T08:45:52;25.03;;;17.90;;
1258;SDS011;619;51.472;6.628;2024-03-07T08:48:19;23.70;;;17.20;;
1258;SDS011;619;51.472;6.628;2024-03-07T08:50:45;26.57;;;16.00;;
1258;SDS011;619;51.472;6.628;2024-03-07T08:53:11;23.10;;;14.87;;
1258;SDS011;619;51.472;6.628;2024-03-07T08:55:36;22.40;;;17.73;;
1258;SDS011;619;51.472;6.628;2024-03-07T08:58:02;23.73;;;17.37;;
1258;SDS011;619;51.472;6.628;2024-03-07T09:00:31;22.60;;;16.03;;
1258;SDS011;619;51.472;6.628;2024-03-07T09:02:57;19.80;;;15.80;;
1258;SDS011;619;51.472;6.628;2024-03-07T09:05:24;23.37;;;15.63;;
1258;SDS011;619;51.472;6.628;2024-03-07T09:07:52;19.30;;;14.70;;
1258;SDS011;619;51.472;6.628;2024-03-07T09:10:19;20.60;;;16.47;;
1258;SDS011;619;51.472;6.628;2024-03-07T09:12:50;20.30;;;14.70;;
1258;SDS011;619;51.472;6.628;2024-03-07T09:15:17;19.17;;;14.60;;
1258;SDS011;619;51.472;6.628;2024-03-07T09:17:46;19.43;;;14.23;;
1258;SDS011;619;51.472;6.628;2024-03-07T09:20:14;18.70;;;15.13;;
1258;SDS011;619;51.472;6.628;2024-03-07T09:22:41;19.47;;;13.50;;
1258;SDS011;619;51.472;6.628;2024-03-07T09:25:12;18.53;;;12.43;;
1258;SDS011;619;51.472;6.628;2024-03-07T09:27:39;18.20;;;13.00;;
1258;SDS011;619;51.472;6.628;2024-03-07T09:30:06;17.77;;;13.07;;
1258;SDS011;619;51.472;6.628;2024-03-07T09:32:40;20.23;;;13.17;;
1258;SDS011;619;51.472;6.628;2024-03-07T09:35:11;16.73;;;13.23;;
1258;SDS011;619;51.472;6.628;2024-03-07T09:37:42;18.90;;;13.70;;
1258;SDS011;619;51.472;6.628;2024-03-07T09:40:11;16.00;;;12.33;;
1258;SDS011;619;51.472;6.628;2024-03-07T09:42:44;16.30;;;11.30;;
1258;SDS011;619;51.472;6.628;2024-03-07T09:45:17;16.33;;;12.07;;
1258;SDS011;619;51.472;6.628;2024-03-07T09:47:46;18.43;;;13.50;;
1258;SDS011;619;51.472;6.628;2024-03-07T09:50:16;17.27;;;12.67;;
1258;SDS011;619;51.472;6.628;2024-03-07T09:52:46;15.47;;;12.53;;
1258;SDS011;619;51.472;6.628;2024-03-07T09:55:17;18.47;;;13.10;;
1258;SDS011;619;51.472;6.628;2024-03-07T09:57:43;14.87;;;12.77;;
1258;SDS011;619;51.472;6.628;2024-03-07T10:00:12;17.23;;;12.70;;
1258;SDS011;619;51.472;6.628;2024-03-07T10:02:47;18.67;;;13.70;;
1258;SDS011;619;51.472;6.628;2024-03-07T10:05:20;18.60;;;14.70;;
1258;SDS011;619;51.472;6.628;2024-03-07T10:07:48;17.00;;;13.13;;
1258;SDS011;619;51.472;6.628;2024-03-07T10:10:14;16.87;;;11.40;;
1258;SDS011;619;51.472;6.628;2024-03-07T10:12:43;19.00;;;12.20;;
1258;SDS011;619;51.472;6.628;2024-03-07T10:15:11;16.37;;;10.83;;
1258;SDS011;619;51.472;6.628;2024-03-07T10:17:44;17.10;;;12.70;;
1258;SDS011;619;51.472;6.628;2024-03-07T10:20:14;19.00;;;12.83;;
1258;SDS011;619;51.472;6.628;2024-03-07T10:22:45;22.40;;;13.30;;
1258;SDS011;619;51.472;6.628;2024-03-07T10:25:11;16.93;;;11.80;;
1258;SDS011;619;51.472;6.628;2024-03-07T10:27:37;16.27;;;12.30;;
1258;SDS011;619;51.472;6.628;2024-03-07T10:30:03;15.37;;;10.63;;
1258;SDS011;619;51.472;6.628;2024-03-07T10:32:35;15.90;;;10.80;;
1258;SDS011;619;51.472;6.628;2024-03-07T10:35:03;19.00;;;12.70;;
1258;SDS011;619;51.472;6.628;2024-03-07T10:37:34;18.83;;;12.43;;
1258;SDS011;619;51.472;6.628;2024-03-07T10:40:02;14.37;;;11.87;;
1258;SDS011;619;51.472;6.628;2024-03-07T10:42:42;16.37;;;12.30;;
1258;SDS011;619;51.472;6.628;2024-03-07T10:45:17;15.50;;;12.50;;
1258;SDS011;619;51.472;6.628;2024-03-07T10:47:55;14.67;;;11.30;;
1258;SDS011;619;51.472;6.628;2024-03-07T11:01:30;13.30;;;11.67;;
1258;SDS011;619;51.472;6.628;2024-03-07T11:03:59;18.37;;;12.60;;
1258;SDS011;619;51.472;6.628;2024-03-07T11:06:32;16.87;;;13.40;;
1258;SDS011;619;51.472;6.628;2024-03-07T11:09:02;15.47;;;11.87;;
1258;SDS011;619;51.472;6.628;2024-03-07T11:11:36;16.60;;;13.07;;
1258;SDS011;619;51.472;6.628;2024-03-07T11:14:09;16.13;;;12.30;;
1258;SDS011;619;51.472;6.628;2024-03-07T11:16:38;15.70;;;12.20;;
1258;SDS011;619;51.472;6.628;2024-03-07T11:19:20;13.70;;;11.27;;
1258;SDS011;619;51.472;6.628;2024-03-07T11:22:01;15.60;;;10.80;;
1258;SDS011;619;51.472;6.628;2024-03-07T11:24:41;18.17;;;12.83;;
1258;SDS011;619;51.472;6.628;2024-03-07T11:27:10;12.63;;;11.33;;
1258;SDS011;619;51.472;6.628;2024-03-07T11:32:17;16.50;;;11.17;;
1258;SDS011;619;51.472;6.628;2024-03-07T11:34:48;13.07;;;10.53;;
1258;SDS011;619;51.472;6.628;2024-03-07T11:37:19;13.40;;;10.80;;
1258;SDS011;619;51.472;6.628;2024-03-07T11:40:06;12.60;;;10.53;;
1258;SDS011;619;51.472;6.628;2024-03-07T11:42:33;13.07;;;11.30;;
1258;SDS011;619;51.472;6.628;2024-03-07T11:45:01;16.63;;;13.40;;
1258;SDS011;619;51.472;6.628;2024-03-07T11:47:39;15.67;;;12.30;;
1258;SDS011;619;51.472;6.628;2024-03-07T11:50:06;16.60;;;11.50;;
1258;SDS011;619;51.472;6.628;2024-03-07T11:52:36;16.50;;;11.83;;
1258;SDS011;619;51.472;6.628;2024-03-07T11:55:09;17.40;;;12.07;;
1258;SDS011;619;51.472;6.628;2024-03-07T11:57:38;16.80;;;11.90;;
1258;SDS011;619;51.472;6.628;2024-03-07T12:00:09;15.10;;;10.93;;
1258;SDS011;619;51.472;6.628;2024-03-07T12:02:40;12.00;;;10.23;;
1258;SDS011;619;51.472;6.628;2024-03-07T12:05:08;14.00;;;11.60;;
1258;SDS011;619;51.472;6.628;2024-03-07T12:07:36;14.37;;;11.43;;
1258;SDS011;619;51.472;6.628;2024-03-07T12:10:03;16.20;;;13.10;;
1258;SDS011;619;51.472;6.628;2024-03-07T12:12:34;13.07;;;11.47;;
1258;SDS011;619;51.472;6.628;2024-03-07T12:15:03;14.30;;;11.20;;
1258;SDS011;619;51.472;6.628;2024-03-07T12:17:34;17.00;;;13.67;;
1258;SDS011;619;51.472;6.628;2024-03-07T12:20:05;15.10;;;12.10;;
1258;SDS011;619;51.472;6.628;2024-03-07T12:22:49;20.33;;;13.60;;
1258;SDS011;619;51.472;6.628;2024-03-07T12:25:37;13.83;;;11.17;;
1258;SDS011;619;51.472;6.628;2024-03-07T12:28:10;16.63;;;13.43;;
1258;SDS011;619;51.472;6.628;2024-03-07T12:33:11;13.43;;;10.97;;
1258;SDS011;619;51.472;6.628;2024-03-07T12:35:39;13.23;;;11.83;;
1258;SDS011;619;51.472;6.628;2024-03-07T12:38:11;14.70;;;11.60;;
1258;SDS011;619;51.472;6.628;2024-03-07T12:40:43;15.97;;;12.27;;
1258;SDS011;619;51.472;6.628;2024-03-07T12:43:17;16.13;;;12.27;;
1258;SDS011;619;51.472;6.628;2024-03-07T12:45:44;15.47;;;13.17;;
1258;SDS011;619;51.472;6.628;2024-03-07T12:48:16;17.27;;;13.80;;
1258;SDS011;619;51.472;6.628;2024-03-07T12:50:44;15.77;;;11.43;;
1258;SDS011;619;51.472;6.628;2024-03-07T12:53:11;19.83;;;12.83;;
1258;SDS011;619;51.472;6.628;2024-03-07T12:55:39;15.83;;;12.40;;
1258;SDS011;619;51.472;6.628;2024-03-07T12:58:09;19.53;;;13.30;;
1258;SDS011;619;51.472;6.628;2024-03-07T13:00:39;14.30;;;12.47;;
1258;SDS011;619;51.472;6.628;2024-03-07T13:03:08;15.33;;;12.77;;
1258;SDS011;619;51.472;6.628;2024-03-07T13:05:35;14.40;;;11.93;;
1258;SDS011;619;51.472;6.628;2024-03-07T13:08:05;18.30;;;12.60;;
1258;SDS011;619;51.472;6.628;2024-03-07T13:10:43;14.47;;;11.73;;
1258;SDS011;619;51.472;6.628;2024-03-07T13:13:12;14.40;;;11.97;;
1258;SDS011;619;51.472;6.628;2024-03-07T13:15:42;14.27;;;11.93;;
1258;SDS011;619;51.472;6.628;2024-03-07T13:18:12;17.80;;;12.93;;
1258;SDS011;619;51.472;6.628;2024-03-07T13:20:41;14.30;;;12.53;;
1258;SDS011;619;51.472;6.628;2024-03-07T13:23:08;15.27;;;12.93;;
1258;SDS011;619;51.472;6.628;2024-03-07T13:25:36;14.33;;;12.33;;
1258;SDS011;619;51.472;6.628;2024-03-07T13:28:07;14.33;;;12.60;;
1258;SDS011;619;51.472;6.628;2024-03-07T13:30:39;18.80;;;12.37;;
1258;SDS011;619;51.472;6.628;2024-03-07T13:33:13;16.57;;;13.30;;
1258;SDS011;619;51.472;6.628;2024-03-07T13:35:41;14.30;;;11.90;;
1258;SDS011;619;51.472;6.628;2024-03-07T13:38:09;17.60;;;13.87;;
1258;SDS011;619;51.472;6.628;2024-03-07T13:40:35;13.53;;;11.43;;
1258;SDS011;619;51.472;6.628;2024-03-07T13:43:04;14.50;;;10.77;;
1258;SDS011;619;51.472;6.628;2024-03-07T13:45:31;14.13;;;11.97;;
1258;SDS011;619;51.472;6.628;2024-03-07T13:48:04;15.77;;;13.00;;
1258;SDS011;619;51.472;6.628;2024-03-07T13:50:37;16.77;;;10.80;;
1258;SDS011;619;51.472;6.628;2024-03-07T13:53:08;14.03;;;11.13;;
1258;SDS011;619;51.472;6.628;2024-03-07T14:09:13;14.47;;;11.63;;
1258;SDS011;619;51.472;6.628;2024-03-07T14:31:41;11.77;;;10.43;;
1258;SDS011;619;51.472;6.628;2024-03-07T14:34:14;13.57;;;10.20;;
1258;SDS011;619;51.472;6.628;2024-03-07T14:37:04;12.10;;;10.50;;
1258;SDS011;619;51.472;6.628;2024-03-07T14:39:40;13.00;;;7.27;;
1258;SDS011;619;51.472;6.628;2024-03-07T14:42:11;8.87;;;7.03;;
1258;SDS011;619;51.472;6.628;2024-03-07T14:44:39;10.60;;;8.47;;
1258;SDS011;619;51.472;6.628;2024-03-07T14:47:08;11.23;;;9.07;;
1258;SDS011;619;51.472;6.628;2024-03-07T14:49:39;15.23;;;12.60;;
1258;SDS011;619;51.472;6.628;2024-03-07T14:52:06;11.40;;;8.53;;
1258;SDS011;619;51.472;6.628;2024-03-07T14:54:38;9.43;;;8.07;;
1258;SDS011;619;51.472;6.628;2024-03-07T14:57:05;9.83;;;7.60;;
1258;SDS011;619;51.472;6.628;2024-03-07T14:59:35;11.97;;;8.00;;
1258;SDS011;619;51.472;6.628;2024-03-07T15:02:03;9.53;;;7.60;;
1258;SDS011;619;51.472;6.628;2024-03-07T15:04:35;12.13;;;8.50;;
1258;SDS011;619;51.472;6.628;2024-03-07T15:07:04;8.33;;;6.57;;
1258;SDS011;619;51.472;6.628;2024-03-07T15:09:30;7.13;;;6.43;;
1258;SDS011;619;51.472;6.628;2024-03-07T15:12:01;9.00;;;6.80;;
1258;SDS011;619;51.472;6.628;2024-03-07T15:14:31;9.70;;;6.77;;
1258;SDS011;619;51.472;6.628;2024-03-07T15:17:03;8.40;;;7.50;;
1258;SDS011;619;51.472;6.628;2024-03-07T15:19:31;7.70;;;6.73;;
1258;SDS011;619;51.472;6.628;2024-03-07T15:21:59;11.17;;;7.80;;
1258;SDS011;619;51.472;6.628;2024-03-07T15:24:28;8.00;;;7.20;;
1258;SDS011;619;51.472;6.628;2024-03-07T15:26:59;8.87;;;7.00;;
1258;SDS011;619;51.472;6.628;2024-03-07T15:29:24;8.97;;;7.27;;
1258;SDS011;619;51.472;6.628;2024-03-07T15:31:52;11.23;;;8.30;;
1258;SDS011;619;51.472;6.628;2024-03-07T15:34:21;8.53;;;6.10;;
1258;SDS011;619;51.472;6.628;2024-03-07T15:36:47;10.70;;;8.57;;
1258;SDS011;619;51.472;6.628;2024-03-07T15:39:27;11.07;;;8.80;;
1258;SDS011;619;51.472;6.628;2024-03-07T15:41:55;6.80;;;5.50;;
1258;SDS011;619;51.472;6.628;2024-03-07T15:44:26;7.30;;;5.67;;
1258;SDS011;619;51.472;6.628;2024-03-07T15:46:56;9.37;;;6.13;;
1258;SDS011;619;51.472;6.628;2024-03-07T15:49:22;12.40;;;5.93;;
1258;SDS011;619;51.472;6.628;2024-03-07T15:51:50;6.80;;;5.57;;
1258;SDS011;619;51.472;6.628;2024-03-07T15:54:19;6.70;;;5.87;;
1258;SDS011;619;51.472;6.628;2024-03-07T15:56:48;6.50;;;5.63;;
1258;SDS011;619;51.472;6.628;2024-03-07T15:59:13;7.00;;;5.00;;
1258;SDS011;619;51.472;6.628;2024-03-07T16:01:44;7.70;;;5.60;;